sensor_id;sensor_type;location;lat;lon;timestamp;P1;durP1;ratioP1;P2;durP2;ratioP2
64282;SDS011;50497;50.720;-2.084;2023-06-14T00:02:10;16.88;;;11.60;;
64282;SDS011;50497;50.720;-2.084;2023-06-14T00:04:36;19.17;;;11.52;;
64282;SDS011;50497;50.720;-2.084;2023-06-14T00:07:02;17.35;;;11.23;;
64282;SDS011;50497;50.720;-2.084;2023-06-14T00:09:28;18.20;;;11.30;;
64282;SDS011;50497;50.720;-2.084;2023-06-14T00:11:53;16.85;;;10.80;;
64282;SDS011;50497;50.720;-2.084;2023-06-14T00:14:18;17.58;;;11.63;;
64282;SDS011;50497;50.720;-2.084;2023-06-14T00:16:44;18.63;;;10.88;;
64282;SDS011;50497;50.720;-2.084;2023-06-14T00:19:10;17.50;;;11.30;;
64282;SDS011;50497;50.720;-2.084;2023-06-14T00:21:36;16.42;;;10.88;;
64282;SDS011;50497;50.720;-2.084;2023-06-14T00:24:02;16.00;;;10.73;;
64282;SDS011;50497;50.720;-2.084;2023-06-14T00:28:56;17.20;;;10.77;;
64282;SDS011;50497;50.720;-2.084;2023-06-14T00:31:22;16.15;;;10.20;;
64282;SDS011;50497;50.720;-2.084;2023-06-14T00:36:13;15.90;;;10.23;;
64282;SDS011;50497;50.720;-2.084;2023-06-14T00:38:38;16.88;;;10.13;;
64282;SDS011;50497;50.720;-2.084;2023-06-14T00:41:04;17.23;;;10.60;;
64282;SDS011;50497;50.720;-2.084;2023-06-14T00:43:29;17.75;;;10.45;;
64282;SDS011;50497;50.720;-2.084;2023-06-14T00:45:55;16.60;;;10.38;;
64282;SDS011;50497;50.720;-2.084;2023-06-14T00:48:20;16.30;;;10.27;;
64282;SDS011;50497;50.720;-2.084;2023-06-14T00:50:47;17.42;;;10.43;;
64282;SDS011;50497;50.720;-2.084;2023-06-14T00:53:15;17.73;;;10.73;;
64282;SDS011;50497;50.720;-2.084;2023-06-14T00:55:42;17.83;;;10.77;;
64282;SDS011;50497;50.720;-2.084;2023-06-14T00:58:08;16.08;;;10.70;;
64282;SDS011;50497;50.720;-2.084;2023-06-14T01:00:35;15.45;;;9.95;;
64282;SDS011;50497;50.720;-2.084;2023-06-14T01:03:01;18.15;;;10.82;;
64282;SDS011;50497;50.720;-2.084;2023-06-14T01:05:27;16.63;;;10.10;;
64282;SDS011;50497;50.720;-2.084;2023-06-14T01:10:26;17.70;;;9.95;;
64282;SDS011;50497;50.720;-2.084;2023-06-14T01:13:03;17.58;;;10.50;;
64282;SDS011;50497;50.720;-2.084;2023-06-14T01:15:35;15.20;;;9.75;;
64282;SDS011;50497;50.720;-2.084;2023-06-14T01:18:03;14.23;;;8.93;;
64282;SDS011;50497;50.720;-2.084;2023-06-14T01:22:56;15.02;;;9.40;;
64282;SDS011;50497;50.720;-2.084;2023-06-14T01:25:22;14.68;;;9.20;;
64282;SDS011;50497;50.720;-2.084;2023-06-14T01:27:52;16.70;;;9.90;;
64282;SDS011;50497;50.720;-2.084;2023-06-14T01:30:20;14.90;;;9.40;;
64282;SDS011;50497;50.720;-2.084;2023-06-14T01:32:47;16.30;;;9.77;;
64282;SDS011;50497;50.720;-2.084;2023-06-14T01:35:13;14.23;;;9.20;;
64282;SDS011;50497;50.720;-2.084;2023-06-14T01:37:39;13.85;;;9.00;;
64282;SDS011;50497;50.720;-2.084;2023-06-14T01:40:07;14.73;;;9.30;;
64282;SDS011;50497;50.720;-2.084;2023-06-14T01:42:35;15.88;;;9.13;;
64282;SDS011;50497;50.720;-2.084;2023-06-14T01:45:03;16.48;;;9.18;;
64282;SDS011;50497;50.720;-2.084;2023-06-14T01:47:30;15.48;;;8.30;;
64282;SDS011;50497;50.720;-2.084;2023-06-14T01:52:22;15.45;;;8.77;;
64282;SDS011;50497;50.720;-2.084;2023-06-14T01:54:49;14.00;;;8.65;;
64282;SDS011;50497;50.720;-2.084;2023-06-14T01:57:15;14.25;;;8.73;;
64282;SDS011;50497;50.720;-2.084;2023-06-14T01:59:40;13.88;;;8.23;;
64282;SDS011;50497;50.720;-2.084;2023-06-14T02:02:06;12.93;;;8.52;;
64282;SDS011;50497;50.720;-2.084;2023-06-14T02:04:31;14.05;;;8.85;;
64282;SDS011;50497;50.720;-2.084;2023-06-14T02:06:57;15.50;;;9.05;;
64282;SDS011;50497;50.720;-2.084;2023-06-14T02:09:22;13.68;;;8.48;;
64282;SDS011;50497;50.720;-2.084;2023-06-14T02:11:48;14.30;;;8.50;;
64282;SDS011;50497;50.720;-2.084;2023-06-14T02:14:14;12.13;;;8.20;;
64282;SDS011;50497;50.720;-2.084;2023-06-14T02:16:39;12.50;;;7.95;;
64282;SDS011;50497;50.720;-2.084;2023-06-14T02:19:05;13.43;;;7.57;;
64282;SDS011;50497;50.720;-2.084;2023-06-14T02:21:30;13.15;;;8.05;;
64282;SDS011;50497;50.720;-2.084;2023-06-14T02:23:56;12.77;;;7.80;;
64282;SDS011;50497;50.720;-2.084;2023-06-14T02:26:23;13.68;;;7.80;;
64282;SDS011;50497;50.720;-2.084;2023-06-14T02:28:48;12.93;;;7.82;;
64282;SDS011;50497;50.720;-2.084;2023-06-14T02:31:14;15.38;;;7.47;;
64282;SDS011;50497;50.720;-2.084;2023-06-14T02:33:39;12.20;;;7.68;;
64282;SDS011;50497;50.720;-2.084;2023-06-14T02:36:05;13.43;;;7.57;;
64282;SDS011;50497;50.720;-2.084;2023-06-14T02:38:31;14.95;;;7.80;;
64282;SDS011;50497;50.720;-2.084;2023-06-14T02:40:56;13.13;;;7.53;;
64282;SDS011;50497;50.720;-2.084;2023-06-14T02:43:22;13.80;;;7.45;;
64282;SDS011;50497;50.720;-2.084;2023-06-14T02:45:47;13.98;;;7.40;;
64282;SDS011;50497;50.720;-2.084;2023-06-14T02:48:12;13.68;;;7.78;;
64282;SDS011;50497;50.720;-2.084;2023-06-14T02:50:38;14.07;;;8.25;;
64282;SDS011;50497;50.720;-2.084;2023-06-14T02:53:03;13.45;;;7.15;;
64282;SDS011;50497;50.720;-2.084;2023-06-14T02:55:29;14.45;;;7.53;;
64282;SDS011;50497;50.720;-2.084;2023-06-14T02:57:54;14.00;;;7.38;;
64282;SDS011;50497;50.720;-2.084;2023-06-14T03:00:19;12.65;;;7.55;;
64282;SDS011;50497;50.720;-2.084;2023-06-14T03:02:45;12.88;;;7.40;;
64282;SDS011;50497;50.720;-2.084;2023-06-14T03:05:11;13.15;;;7.65;;
64282;SDS011;50497;50.720;-2.084;2023-06-14T03:10:06;13.40;;;7.50;;
64282;SDS011;50497;50.720;-2.084;2023-06-14T03:12:34;13.05;;;7.07;;
64282;SDS011;50497;50.720;-2.084;2023-06-14T03:15:00;13.05;;;7.25;;
64282;SDS011;50497;50.720;-2.084;2023-06-14T03:17:26;13.52;;;7.75;;
64282;SDS011;50497;50.720;-2.084;2023-06-14T03:19:54;13.20;;;6.93;;
64282;SDS011;50497;50.720;-2.084;2023-06-14T03:22:20;13.45;;;7.18;;
64282;SDS011;50497;50.720;-2.084;2023-06-14T03:24:46;11.45;;;6.82;;
64282;SDS011;50497;50.720;-2.084;2023-06-14T03:27:13;14.00;;;7.30;;
64282;SDS011;50497;50.720;-2.084;2023-06-14T03:29:39;14.20;;;7.18;;
64282;SDS011;50497;50.720;-2.084;2023-06-14T03:32:05;12.13;;;6.93;;
64282;SDS011;50497;50.720;-2.084;2023-06-14T03:34:30;13.15;;;6.60;;
64282;SDS011;50497;50.720;-2.084;2023-06-14T03:36:56;12.43;;;6.75;;
64282;SDS011;50497;50.720;-2.084;2023-06-14T03:39:21;11.73;;;7.20;;
64282;SDS011;50497;50.720;-2.084;2023-06-14T03:41:46;12.43;;;7.10;;
64282;SDS011;50497;50.720;-2.084;2023-06-14T03:44:14;11.05;;;6.68;;
64282;SDS011;50497;50.720;-2.084;2023-06-14T03:46:40;11.50;;;6.55;;
64282;SDS011;50497;50.720;-2.084;2023-06-14T03:49:06;11.18;;;6.35;;
64282;SDS011;50497;50.720;-2.084;2023-06-14T03:51:31;11.60;;;6.13;;
64282;SDS011;50497;50.720;-2.084;2023-06-14T03:53:56;11.57;;;6.18;;
64282;SDS011;50497;50.720;-2.084;2023-06-14T03:56:22;11.32;;;6.13;;
64282;SDS011;50497;50.720;-2.084;2023-06-14T03:58:47;12.48;;;6.38;;
64282;SDS011;50497;50.720;-2.084;2023-06-14T04:01:13;11.43;;;5.82;;
64282;SDS011;50497;50.720;-2.084;2023-06-14T04:03:38;11.70;;;6.10;;
64282;SDS011;50497;50.720;-2.084;2023-06-14T04:08:31;10.95;;;6.10;;
64282;SDS011;50497;50.720;-2.084;2023-06-14T04:10:56;13.80;;;6.45;;
64282;SDS011;50497;50.720;-2.084;2023-06-14T04:13:22;10.52;;;5.88;;
64282;SDS011;50497;50.720;-2.084;2023-06-14T04:15:47;12.40;;;6.32;;
64282;SDS011;50497;50.720;-2.084;2023-06-14T04:18:13;11.05;;;6.28;;
64282;SDS011;50497;50.720;-2.084;2023-06-14T04:20:38;11.02;;;6.18;;
64282;SDS011;50497;50.720;-2.084;2023-06-14T04:23:11;11.00;;;5.95;;
64282;SDS011;50497;50.720;-2.084;2023-06-14T04:25:43;11.98;;;5.80;;
64282;SDS011;50497;50.720;-2.084;2023-06-14T04:28:11;10.80;;;5.93;;
64282;SDS011;50497;50.720;-2.084;2023-06-14T04:30:37;10.45;;;5.57;;
64282;SDS011;50497;50.720;-2.084;2023-06-14T04:35:30;11.20;;;5.93;;
64282;SDS011;50497;50.720;-2.084;2023-06-14T04:40:22;12.30;;;6.40;;
64282;SDS011;50497;50.720;-2.084;2023-06-14T04:42:48;10.70;;;5.90;;
64282;SDS011;50497;50.720;-2.084;2023-06-14T04:45:13;11.48;;;6.13;;
64282;SDS011;50497;50.720;-2.084;2023-06-14T04:50:07;12.35;;;5.38;;
64282;SDS011;50497;50.720;-2.084;2023-06-14T04:52:32;10.27;;;5.63;;
64282;SDS011;50497;50.720;-2.084;2023-06-14T04:54:58;11.43;;;5.60;;
64282;SDS011;50497;50.720;-2.084;2023-06-14T04:57:24;9.25;;;5.05;;
64282;SDS011;50497;50.720;-2.084;2023-06-14T04:59:50;10.05;;;5.43;;
64282;SDS011;50497;50.720;-2.084;2023-06-14T05:02:19;10.85;;;5.32;;
64282;SDS011;50497;50.720;-2.084;2023-06-14T05:04:46;10.63;;;5.57;;
64282;SDS011;50497;50.720;-2.084;2023-06-14T05:07:12;11.88;;;5.65;;
64282;SDS011;50497;50.720;-2.084;2023-06-14T05:09:39;10.18;;;5.35;;
64282;SDS011;50497;50.720;-2.084;2023-06-14T05:12:05;10.13;;;5.30;;
64282;SDS011;50497;50.720;-2.084;2023-06-14T05:14:32;15.13;;;5.97;;
64282;SDS011;50497;50.720;-2.084;2023-06-14T05:16:58;10.25;;;5.40;;
64282;SDS011;50497;50.720;-2.084;2023-06-14T05:19:24;9.73;;;4.82;;
64282;SDS011;50497;50.720;-2.084;2023-06-14T05:21:50;9.38;;;5.05;;
64282;SDS011;50497;50.720;-2.084;2023-06-14T05:24:16;9.98;;;5.20;;
64282;SDS011;50497;50.720;-2.084;2023-06-14T05:26:42;9.27;;;4.85;;
64282;SDS011;50497;50.720;-2.084;2023-06-14T05:29:08;10.10;;;4.85;;
64282;SDS011;50497;50.720;-2.084;2023-06-14T05:31:33;11.10;;;5.20;;
64282;SDS011;50497;50.720;-2.084;2023-06-14T05:33:59;10.00;;;4.70;;
64282;SDS011;50497;50.720;-2.084;2023-06-14T05:36:24;9.13;;;4.57;;
64282;SDS011;50497;50.720;-2.084;2023-06-14T05:38:50;11.55;;;4.72;;
64282;SDS011;50497;50.720;-2.084;2023-06-14T05:41:22;8.88;;;4.15;;
64282;SDS011;50497;50.720;-2.084;2023-06-14T05:43:47;8.88;;;4.38;;
64282;SDS011;50497;50.720;-2.084;2023-06-14T05:46:13;10.95;;;4.35;;
64282;SDS011;50497;50.720;-2.084;2023-06-14T05:51:05;10.70;;;4.40;;
64282;SDS011;50497;50.720;-2.084;2023-06-14T05:53:33;8.38;;;4.25;;
64282;SDS011;50497;50.720;-2.084;2023-06-14T05:55:59;8.27;;;4.25;;
64282;SDS011;50497;50.720;-2.084;2023-06-14T05:58:24;9.70;;;4.43;;
64282;SDS011;50497;50.720;-2.084;2023-06-14T06:00:50;8.15;;;4.22;;
64282;SDS011;50497;50.720;-2.084;2023-06-14T06:03:15;9.13;;;3.97;;
64282;SDS011;50497;50.720;-2.084;2023-06-14T06:05:41;10.50;;;4.80;;
64282;SDS011;50497;50.720;-2.084;2023-06-14T06:08:06;8.25;;;3.47;;
64282;SDS011;50497;50.720;-2.084;2023-06-14T06:10:32;8.60;;;4.00;;
64282;SDS011;50497;50.720;-2.084;2023-06-14T06:12:57;9.43;;;4.15;;
64282;SDS011;50497;50.720;-2.084;2023-06-14T06:15:22;7.55;;;4.10;;
64282;SDS011;50497;50.720;-2.084;2023-06-14T06:17:48;9.38;;;4.25;;
64282;SDS011;50497;50.720;-2.084;2023-06-14T06:20:13;9.68;;;4.15;;
64282;SDS011;50497;50.720;-2.084;2023-06-14T06:22:39;10.05;;;4.63;;
64282;SDS011;50497;50.720;-2.084;2023-06-14T06:25:04;9.38;;;4.10;;
64282;SDS011;50497;50.720;-2.084;2023-06-14T06:27:31;7.97;;;3.55;;
64282;SDS011;50497;50.720;-2.084;2023-06-14T06:29:56;9.80;;;3.90;;
64282;SDS011;50497;50.720;-2.084;2023-06-14T06:32:22;9.90;;;4.13;;
64282;SDS011;50497;50.720;-2.084;2023-06-14T06:34:47;9.43;;;4.35;;
64282;SDS011;50497;50.720;-2.084;2023-06-14T06:37:13;7.63;;;3.80;;
64282;SDS011;50497;50.720;-2.084;2023-06-14T06:39:38;6.60;;;3.50;;
64282;SDS011;50497;50.720;-2.084;2023-06-14T06:42:04;8.48;;;3.58;;
64282;SDS011;50497;50.720;-2.084;2023-06-14T06:44:30;8.73;;;4.50;;
64282;SDS011;50497;50.720;-2.084;2023-06-14T06:46:55;7.95;;;3.30;;
64282;SDS011;50497;50.720;-2.084;2023-06-14T06:49:22;9.55;;;3.50;;
64282;SDS011;50497;50.720;-2.084;2023-06-14T06:52:04;8.15;;;3.55;;
64282;SDS011;50497;50.720;-2.084;2023-06-14T06:54:31;9.75;;;3.40;;
64282;SDS011;50497;50.720;-2.084;2023-06-14T06:56:56;6.28;;;3.20;;
64282;SDS011;50497;50.720;-2.084;2023-06-14T06:59:22;7.25;;;3.47;;
64282;SDS011;50497;50.720;-2.084;2023-06-14T07:01:48;7.18;;;3.78;;
64282;SDS011;50497;50.720;-2.084;2023-06-14T07:04:13;7.60;;;3.25;;
64282;SDS011;50497;50.720;-2.084;2023-06-14T07:06:39;7.22;;;3.60;;
64282;SDS011;50497;50.720;-2.084;2023-06-14T07:09:04;7.32;;;3.35;;
64282;SDS011;50497;50.720;-2.084;2023-06-14T07:11:33;7.55;;;3.45;;
64282;SDS011;50497;50.720;-2.084;2023-06-14T07:13:58;7.32;;;3.30;;
64282;SDS011;50497;50.720;-2.084;2023-06-14T07:18:49;11.37;;;3.60;;
64282;SDS011;50497;50.720;-2.084;2023-06-14T07:23:39;9.67;;;3.63;;
64282;SDS011;50497;50.720;-2.084;2023-06-14T07:26:05;7.70;;;3.78;;
64282;SDS011;50497;50.720;-2.084;2023-06-14T07:30:55;9.00;;;3.63;;
64282;SDS011;50497;50.720;-2.084;2023-06-14T07:33:21;5.63;;;2.83;;
64282;SDS011;50497;50.720;-2.084;2023-06-14T07:38:13;6.80;;;3.30;;
64282;SDS011;50497;50.720;-2.084;2023-06-14T07:43:03;7.35;;;3.25;;
64282;SDS011;50497;50.720;-2.084;2023-06-14T07:47:54;7.00;;;3.17;;
64282;SDS011;50497;50.720;-2.084;2023-06-14T07:52:45;6.73;;;2.90;;
64282;SDS011;50497;50.720;-2.084;2023-06-14T07:55:11;6.78;;;3.10;;
64282;SDS011;50497;50.720;-2.084;2023-06-14T07:57:37;7.07;;;2.92;;
64282;SDS011;50497;50.720;-2.084;2023-06-14T08:02:31;7.03;;;2.88;;
64282;SDS011;50497;50.720;-2.084;2023-06-14T08:04:56;7.63;;;2.85;;
64282;SDS011;50497;50.720;-2.084;2023-06-14T08:07:22;9.13;;;3.13;;
64282;SDS011;50497;50.720;-2.084;2023-06-14T08:09:47;6.10;;;2.85;;
64282;SDS011;50497;50.720;-2.084;2023-06-14T08:12:13;9.57;;;3.20;;
64282;SDS011;50497;50.720;-2.084;2023-06-14T08:14:39;7.85;;;2.90;;
64282;SDS011;50497;50.720;-2.084;2023-06-14T08:17:05;7.47;;;3.13;;
64282;SDS011;50497;50.720;-2.084;2023-06-14T08:19:30;6.70;;;2.80;;
64282;SDS011;50497;50.720;-2.084;2023-06-14T08:24:21;6.40;;;3.00;;
64282;SDS011;50497;50.720;-2.084;2023-06-14T08:26:50;6.88;;;2.92;;
64282;SDS011;50497;50.720;-2.084;2023-06-14T08:29:16;6.45;;;3.17;;
64282;SDS011;50497;50.720;-2.084;2023-06-14T08:31:41;7.40;;;3.30;;
64282;SDS011;50497;50.720;-2.084;2023-06-14T08:34:06;6.75;;;3.10;;
64282;SDS011;50497;50.720;-2.084;2023-06-14T08:36:32;6.63;;;2.83;;
64282;SDS011;50497;50.720;-2.084;2023-06-14T08:38:57;8.20;;;3.10;;
64282;SDS011;50497;50.720;-2.084;2023-06-14T08:41:23;7.03;;;3.05;;
64282;SDS011;50497;50.720;-2.084;2023-06-14T08:43:49;6.40;;;2.67;;
64282;SDS011;50497;50.720;-2.084;2023-06-14T08:46:17;5.32;;;2.80;;
64282;SDS011;50497;50.720;-2.084;2023-06-14T08:48:45;8.15;;;3.00;;
64282;SDS011;50497;50.720;-2.084;2023-06-14T08:51:12;7.25;;;3.10;;
64282;SDS011;50497;50.720;-2.084;2023-06-14T08:53:41;6.60;;;3.08;;
64282;SDS011;50497;50.720;-2.084;2023-06-14T08:56:08;7.25;;;3.00;;
64282;SDS011;50497;50.720;-2.084;2023-06-14T08:58:42;5.75;;;2.80;;
64282;SDS011;50497;50.720;-2.084;2023-06-14T09:01:10;6.38;;;3.20;;
64282;SDS011;50497;50.720;-2.084;2023-06-14T09:03:42;6.65;;;2.83;;
64282;SDS011;50497;50.720;-2.084;2023-06-14T09:06:08;7.28;;;3.10;;
64282;SDS011;50497;50.720;-2.084;2023-06-14T09:08:38;7.75;;;3.17;;
64282;SDS011;50497;50.720;-2.084;2023-06-14T09:11:08;7.80;;;3.42;;
64282;SDS011;50497;50.720;-2.084;2023-06-14T09:13:33;7.40;;;3.20;;
64282;SDS011;50497;50.720;-2.084;2023-06-14T09:15:59;7.80;;;3.40;;
64282;SDS011;50497;50.720;-2.084;2023-06-14T09:18:35;5.90;;;3.10;;
64282;SDS011;50497;50.720;-2.084;2023-06-14T09:21:02;8.02;;;3.20;;
64282;SDS011;50497;50.720;-2.084;2023-06-14T09:23:27;6.70;;;3.20;;
64282;SDS011;50497;50.720;-2.084;2023-06-14T09:25:53;7.10;;;3.13;;
64282;SDS011;50497;50.720;-2.084;2023-06-14T09:28:19;6.07;;;2.95;;
64282;SDS011;50497;50.720;-2.084;2023-06-14T09:30:47;9.90;;;3.45;;
64282;SDS011;50497;50.720;-2.084;2023-06-14T09:33:16;8.25;;;3.50;;
64282;SDS011;50497;50.720;-2.084;2023-06-14T09:35:44;8.48;;;3.15;;
64282;SDS011;50497;50.720;-2.084;2023-06-14T09:38:10;6.90;;;3.45;;
64282;SDS011;50497;50.720;-2.084;2023-06-14T09:40:36;7.50;;;3.53;;
64282;SDS011;50497;50.720;-2.084;2023-06-14T09:43:03;7.80;;;3.45;;
64282;SDS011;50497;50.720;-2.084;2023-06-14T09:45:31;8.38;;;3.53;;
64282;SDS011;50497;50.720;-2.084;2023-06-14T09:47:57;7.03;;;3.55;;
64282;SDS011;50497;50.720;-2.084;2023-06-14T09:50:23;7.07;;;3.50;;
64282;SDS011;50497;50.720;-2.084;2023-06-14T09:52:49;8.70;;;3.92;;
64282;SDS011;50497;50.720;-2.084;2023-06-14T09:55:18;7.68;;;3.50;;
64282;SDS011;50497;50.720;-2.084;2023-06-14T09:57:45;7.20;;;3.67;;
64282;SDS011;50497;50.720;-2.084;2023-06-14T10:00:12;8.60;;;3.50;;
64282;SDS011;50497;50.720;-2.084;2023-06-14T10:02:40;8.10;;;3.40;;
64282;SDS011;50497;50.720;-2.084;2023-06-14T10:05:12;9.00;;;3.35;;
64282;SDS011;50497;50.720;-2.084;2023-06-14T10:07:53;8.27;;;3.75;;
64282;SDS011;50497;50.720;-2.084;2023-06-14T10:10:24;7.57;;;3.65;;
64282;SDS011;50497;50.720;-2.084;2023-06-14T10:12:49;8.63;;;3.70;;
64282;SDS011;50497;50.720;-2.084;2023-06-14T10:15:17;7.20;;;3.55;;
64282;SDS011;50497;50.720;-2.084;2023-06-14T10:17:52;10.43;;;3.90;;
64282;SDS011;50497;50.720;-2.084;2023-06-14T10:20:40;6.93;;;3.78;;
64282;SDS011;50497;50.720;-2.084;2023-06-14T10:23:13;8.30;;;3.58;;
64282;SDS011;50497;50.720;-2.084;2023-06-14T10:25:43;8.32;;;4.00;;
64282;SDS011;50497;50.720;-2.084;2023-06-14T10:33:39;8.50;;;3.53;;
64282;SDS011;50497;50.720;-2.084;2023-06-14T10:38:57;7.10;;;3.97;;
64282;SDS011;50497;50.720;-2.084;2023-06-14T10:41:26;7.97;;;3.92;;
64282;SDS011;50497;50.720;-2.084;2023-06-14T10:43:52;7.38;;;4.10;;
64282;SDS011;50497;50.720;-2.084;2023-06-14T10:46:18;7.68;;;4.20;;
64282;SDS011;50497;50.720;-2.084;2023-06-14T10:48:48;7.22;;;4.00;;
64282;SDS011;50497;50.720;-2.084;2023-06-14T10:51:17;8.68;;;3.88;;
64282;SDS011;50497;50.720;-2.084;2023-06-14T10:56:22;7.32;;;4.10;;
64282;SDS011;50497;50.720;-2.084;2023-06-14T10:58:49;6.85;;;4.13;;
64282;SDS011;50497;50.720;-2.084;2023-06-14T11:01:15;7.68;;;4.35;;
64282;SDS011;50497;50.720;-2.084;2023-06-14T11:03:50;10.23;;;4.85;;
64282;SDS011;50497;50.720;-2.084;2023-06-14T11:06:21;7.38;;;4.25;;
64282;SDS011;50497;50.720;-2.084;2023-06-14T11:11:48;12.25;;;4.75;;
64282;SDS011;50497;50.720;-2.084;2023-06-14T11:14:16;9.75;;;4.65;;
64282;SDS011;50497;50.720;-2.084;2023-06-14T11:16:47;8.60;;;4.47;;
64282;SDS011;50497;50.720;-2.084;2023-06-14T11:19:13;8.48;;;4.43;;
64282;SDS011;50497;50.720;-2.084;2023-06-14T11:21:39;8.80;;;4.60;;
64282;SDS011;50497;50.720;-2.084;2023-06-14T11:24:09;9.32;;;4.75;;
64282;SDS011;50497;50.720;-2.084;2023-06-14T11:26:37;8.02;;;4.35;;
64282;SDS011;50497;50.720;-2.084;2023-06-14T11:29:02;8.00;;;4.32;;
64282;SDS011;50497;50.720;-2.084;2023-06-14T11:31:28;9.00;;;4.70;;
64282;SDS011;50497;50.720;-2.084;2023-06-14T11:33:55;6.53;;;4.28;;
64282;SDS011;50497;50.720;-2.084;2023-06-14T11:36:30;7.45;;;4.60;;
64282;SDS011;50497;50.720;-2.084;2023-06-14T11:38:59;8.35;;;4.50;;
64282;SDS011;50497;50.720;-2.084;2023-06-14T11:41:25;7.38;;;4.55;;
64282;SDS011;50497;50.720;-2.084;2023-06-14T11:43:53;8.55;;;4.70;;
64282;SDS011;50497;50.720;-2.084;2023-06-14T11:46:19;9.52;;;4.90;;
64282;SDS011;50497;50.720;-2.084;2023-06-14T11:48:49;8.52;;;4.90;;
64282;SDS011;50497;50.720;-2.084;2023-06-14T11:51:14;7.97;;;4.68;;
64282;SDS011;50497;50.720;-2.084;2023-06-14T11:53:40;8.50;;;4.63;;
64282;SDS011;50497;50.720;-2.084;2023-06-14T11:56:08;8.27;;;5.00;;
64282;SDS011;50497;50.720;-2.084;2023-06-14T11:58:33;8.10;;;4.85;;
64282;SDS011;50497;50.720;-2.084;2023-06-14T12:00:59;7.72;;;4.05;;
64282;SDS011;50497;50.720;-2.084;2023-06-14T12:03:24;10.45;;;4.70;;
64282;SDS011;50497;50.720;-2.084;2023-06-14T12:06:02;8.88;;;4.78;;
64282;SDS011;50497;50.720;-2.084;2023-06-14T12:08:38;7.57;;;4.60;;
64282;SDS011;50497;50.720;-2.084;2023-06-14T12:11:05;7.53;;;4.80;;
64282;SDS011;50497;50.720;-2.084;2023-06-14T12:13:43;10.07;;;5.07;;
64282;SDS011;50497;50.720;-2.084;2023-06-14T12:16:11;9.48;;;5.07;;
64282;SDS011;50497;50.720;-2.084;2023-06-14T12:18:38;10.10;;;4.72;;
64282;SDS011;50497;50.720;-2.084;2023-06-14T12:21:07;9.73;;;5.15;;
64282;SDS011;50497;50.720;-2.084;2023-06-14T12:23:43;10.60;;;5.10;;
64282;SDS011;50497;50.720;-2.084;2023-06-14T12:26:08;10.52;;;5.18;;
64282;SDS011;50497;50.720;-2.084;2023-06-14T12:28:34;7.88;;;5.07;;
64282;SDS011;50497;50.720;-2.084;2023-06-14T12:30:59;9.40;;;5.13;;
64282;SDS011;50497;50.720;-2.084;2023-06-14T12:33:25;9.02;;;5.22;;
64282;SDS011;50497;50.720;-2.084;2023-06-14T12:35:50;14.40;;;6.43;;
64282;SDS011;50497;50.720;-2.084;2023-06-14T12:38:20;10.93;;;5.60;;
64282;SDS011;50497;50.720;-2.084;2023-06-14T12:40:46;8.70;;;5.50;;
64282;SDS011;50497;50.720;-2.084;2023-06-14T12:43:11;8.63;;;5.38;;
64282;SDS011;50497;50.720;-2.084;2023-06-14T12:45:37;9.50;;;5.50;;
64282;SDS011;50497;50.720;-2.084;2023-06-14T12:48:02;10.57;;;5.50;;
64282;SDS011;50497;50.720;-2.084;2023-06-14T12:50:28;10.02;;;5.90;;
64282;SDS011;50497;50.720;-2.084;2023-06-14T12:52:53;7.80;;;5.60;;
64282;SDS011;50497;50.720;-2.084;2023-06-14T12:55:18;10.10;;;5.63;;
64282;SDS011;50497;50.720;-2.084;2023-06-14T12:57:44;10.52;;;6.30;;
64282;SDS011;50497;50.720;-2.084;2023-06-14T13:00:10;15.40;;;5.80;;
64282;SDS011;50497;50.720;-2.084;2023-06-14T13:02:37;10.73;;;6.20;;
64282;SDS011;50497;50.720;-2.084;2023-06-14T13:05:03;10.32;;;6.18;;
64282;SDS011;50497;50.720;-2.084;2023-06-14T13:07:29;11.60;;;6.10;;
64282;SDS011;50497;50.720;-2.084;2023-06-14T13:09:54;8.43;;;5.97;;
64282;SDS011;50497;50.720;-2.084;2023-06-14T13:12:20;11.00;;;6.00;;
64282;SDS011;50497;50.720;-2.084;2023-06-14T13:14:45;12.38;;;6.13;;
64282;SDS011;50497;50.720;-2.084;2023-06-14T13:17:11;9.93;;;6.43;;
64282;SDS011;50497;50.720;-2.084;2023-06-14T13:19:36;10.45;;;6.68;;
64282;SDS011;50497;50.720;-2.084;2023-06-14T13:22:02;11.32;;;6.15;;
64282;SDS011;50497;50.720;-2.084;2023-06-14T13:24:28;11.65;;;6.82;;
64282;SDS011;50497;50.720;-2.084;2023-06-14T13:26:54;12.02;;;7.10;;
64282;SDS011;50497;50.720;-2.084;2023-06-14T13:29:20;10.05;;;6.47;;
64282;SDS011;50497;50.720;-2.084;2023-06-14T13:31:46;12.13;;;6.50;;
64282;SDS011;50497;50.720;-2.084;2023-06-14T13:34:11;11.63;;;6.25;;
64282;SDS011;50497;50.720;-2.084;2023-06-14T13:36:37;12.95;;;6.93;;
64282;SDS011;50497;50.720;-2.084;2023-06-14T13:39:02;9.93;;;6.63;;
64282;SDS011;50497;50.720;-2.084;2023-06-14T13:41:28;13.95;;;7.47;;
64282;SDS011;50497;50.720;-2.084;2023-06-14T13:44:00;14.13;;;7.07;;
64282;SDS011;50497;50.720;-2.084;2023-06-14T13:46:28;11.35;;;7.00;;
64282;SDS011;50497;50.720;-2.084;2023-06-14T13:48:54;12.02;;;7.65;;
64282;SDS011;50497;50.720;-2.084;2023-06-14T13:51:20;13.63;;;7.38;;
64282;SDS011;50497;50.720;-2.084;2023-06-14T13:53:46;11.57;;;6.95;;
64282;SDS011;50497;50.720;-2.084;2023-06-14T13:56:13;11.20;;;6.57;;
64282;SDS011;50497;50.720;-2.084;2023-06-14T13:58:39;12.82;;;7.40;;
64282;SDS011;50497;50.720;-2.084;2023-06-14T14:01:04;10.23;;;6.63;;
64282;SDS011;50497;50.720;-2.084;2023-06-14T14:03:30;11.55;;;6.70;;
64282;SDS011;50497;50.720;-2.084;2023-06-14T14:05:55;10.35;;;7.10;;
64282;SDS011;50497;50.720;-2.084;2023-06-14T14:08:21;11.23;;;7.47;;
64282;SDS011;50497;50.720;-2.084;2023-06-14T14:10:46;12.98;;;7.85;;
64282;SDS011;50497;50.720;-2.084;2023-06-14T14:13:12;11.40;;;7.40;;
64282;SDS011;50497;50.720;-2.084;2023-06-14T14:15:38;12.38;;;7.70;;
64282;SDS011;50497;50.720;-2.084;2023-06-14T14:18:03;12.65;;;7.03;;
64282;SDS011;50497;50.720;-2.084;2023-06-14T14:20:30;12.85;;;7.20;;
64282;SDS011;50497;50.720;-2.084;2023-06-14T14:22:56;13.48;;;7.38;;
64282;SDS011;50497;50.720;-2.084;2023-06-14T14:25:22;12.02;;;7.50;;
64282;SDS011;50497;50.720;-2.084;2023-06-14T14:27:47;12.88;;;7.30;;
64282;SDS011;50497;50.720;-2.084;2023-06-14T14:30:12;10.75;;;7.40;;
64282;SDS011;50497;50.720;-2.084;2023-06-14T14:32:42;12.70;;;7.60;;
64282;SDS011;50497;50.720;-2.084;2023-06-14T14:35:09;11.20;;;7.15;;
64282;SDS011;50497;50.720;-2.084;2023-06-14T14:37:34;13.27;;;7.00;;
64282;SDS011;50497;50.720;-2.084;2023-06-14T14:40:00;11.85;;;6.65;;
64282;SDS011;50497;50.720;-2.084;2023-06-14T14:42:25;11.18;;;7.85;;
64282;SDS011;50497;50.720;-2.084;2023-06-14T14:44:51;12.75;;;7.82;;
64282;SDS011;50497;50.720;-2.084;2023-06-14T14:47:17;10.77;;;7.60;;
64282;SDS011;50497;50.720;-2.084;2023-06-14T14:49:42;12.68;;;8.35;;
64282;SDS011;50497;50.720;-2.084;2023-06-14T14:52:08;12.48;;;8.30;;
64282;SDS011;50497;50.720;-2.084;2023-06-14T14:54:33;13.55;;;8.48;;
64282;SDS011;50497;50.720;-2.084;2023-06-14T14:56:59;13.23;;;8.25;;
64282;SDS011;50497;50.720;-2.084;2023-06-14T14:59:25;14.02;;;8.02;;
64282;SDS011;50497;50.720;-2.084;2023-06-14T15:01:50;14.13;;;7.75;;
64282;SDS011;50497;50.720;-2.084;2023-06-14T15:04:17;14.40;;;7.65;;
64282;SDS011;50497;50.720;-2.084;2023-06-14T15:06:42;13.95;;;8.05;;
64282;SDS011;50497;50.720;-2.084;2023-06-14T15:09:08;11.75;;;8.27;;
64282;SDS011;50497;50.720;-2.084;2023-06-14T15:11:33;13.02;;;8.02;;
64282;SDS011;50497;50.720;-2.084;2023-06-14T15:13:58;12.77;;;8.70;;
64282;SDS011;50497;50.720;-2.084;2023-06-14T15:16:24;15.13;;;8.30;;
64282;SDS011;50497;50.720;-2.084;2023-06-14T15:18:49;13.63;;;8.75;;
64282;SDS011;50497;50.720;-2.084;2023-06-14T15:21:15;12.18;;;8.57;;
64282;SDS011;50497;50.720;-2.084;2023-06-14T15:23:40;12.95;;;8.25;;
64282;SDS011;50497;50.720;-2.084;2023-06-14T15:26:06;14.57;;;8.65;;